createdAt,value
2016-09-28T00:00:25.590Z,15.54
2016-09-28T00:01:25.576Z,15.59
2016-09-28T00:02:25.571Z,15.64
2016-09-28T00:03:25.553Z,15.63
2016-09-28T00:04:25.546Z,15.6
2016-09-28T00:05:25.534Z,15.63
2016-09-28T00:06:25.520Z,15.67
2016-09-28T00:07:25.512Z,15.66
2016-09-28T00:08:25.501Z,15.66
2016-09-28T00:09:25.504Z,15.66
2016-09-28T00:10:25.483Z,15.7
2016-09-28T00:11:25.470Z,15.68
2016-09-28T00:12:25.458Z,15.67
2016-09-28T00:13:25.446Z,15.67
2016-09-28T00:14:25.749Z,15.66
2016-09-28T00:15:25.429Z,15.63
2016-09-28T00:16:25.728Z,15.66
2016-09-28T00:17:25.404Z,15.63
2016-09-28T00:18:25.408Z,15.66
2016-09-28T00:19:25.384Z,15.68
2016-09-28T00:20:25.373Z,15.67
2016-09-28T00:21:25.416Z,15.64
2016-09-28T00:22:25.350Z,15.57
2016-09-28T00:23:25.653Z,15.63
2016-09-28T00:24:25.330Z,15.63
2016-09-28T00:25:25.336Z,15.61
2016-09-28T00:26:25.937Z,15.59
2016-09-28T00:27:25.301Z,15.57
2016-09-28T00:28:25.291Z,15.51
2016-09-28T00:29:25.276Z,15.52
2016-09-28T00:30:25.264Z,15.45
2016-09-28T00:31:25.255Z,15.48
2016-09-28T00:32:25.560Z,15.49
2016-09-28T00:33:25.234Z,15.49
2016-09-28T00:34:25.226Z,15.46
2016-09-28T00:35:25.527Z,15.48
2016-09-28T00:36:25.515Z,15.43
2016-09-28T00:37:25.197Z,15.41
2016-09-28T00:38:25.182Z,15.38
2016-09-28T00:39:25.175Z,15.28
2016-09-28T00:40:25.177Z,15.33
2016-09-28T00:41:25.149Z,15.3
2016-09-28T00:42:25.138Z,15.36
2016-09-28T00:43:25.122Z,15.39
2016-09-28T00:44:25.116Z,15.33
2016-09-28T00:45:25.109Z,15.33
2016-09-28T00:46:25.092Z,15.3
2016-09-28T00:47:25.295Z,15.28
2016-09-28T00:48:25.087Z,15.33
2016-09-28T00:49:25.076Z,15.35
2016-09-28T00:50:25.049Z,15.2
2016-09-28T00:51:25.046Z,15.21
2016-09-28T00:52:25.358Z,15.3
2016-09-28T00:53:25.021Z,15.35
2016-09-28T00:54:25.004Z,15.41
2016-09-28T00:55:25.002Z,15.39
2016-09-28T00:56:24.983Z,15.35
2016-09-28T00:57:24.983Z,15.35
2016-09-28T00:58:25.600Z,15.42
2016-09-28T00:59:25.274Z,15.33
2016-09-28T01:00:24.944Z,15.3
2016-09-28T01:01:24.937Z,15.43
2016-09-28T01:02:25.232Z,15.38
2016-09-28T01:03:24.914Z,15.33
2016-09-28T01:04:24.901Z,15.43
2016-09-28T01:05:25.214Z,15.45
2016-09-28T01:06:25.201Z,15.56
2016-09-28T01:07:24.865Z,15.51
2016-09-28T01:08:24.861Z,15.56
2016-09-28T01:09:25.156Z,15.52
2016-09-28T01:10:24.836Z,15.51
2016-09-28T01:11:24.825Z,15.54
2016-09-28T01:12:25.125Z,15.49
2016-09-28T01:13:24.803Z,15.54
2016-09-28T01:14:24.797Z,15.51
2016-09-28T01:15:24.783Z,15.54
2016-09-28T01:16:24.770Z,15.52
2016-09-28T01:17:24.764Z,15.59
2016-09-28T01:18:24.750Z,15.56
2016-09-28T01:19:24.734Z,15.57
2016-09-28T01:20:25.039Z,15.56
2016-09-28T01:21:25.036Z,15.56
2016-09-28T01:22:25.022Z,15.6
2016-09-28T01:23:24.691Z,15.6
2016-09-28T01:24:24.682Z,15.59
2016-09-28T01:25:24.669Z,15.68
2016-09-28T01:26:24.659Z,15.66
2016-09-28T01:27:24.703Z,15.66
2016-09-28T01:28:24.634Z,15.66
2016-09-28T01:29:24.627Z,15.72
2016-09-28T01:30:24.625Z,15.67
2016-09-28T01:31:24.934Z,15.66
2016-09-28T01:32:24.609Z,15.68
2016-09-28T01:33:24.581Z,15.7
2016-09-28T01:34:24.889Z,15.74
2016-09-28T01:35:24.893Z,15.79
2016-09-28T01:36:24.871Z,15.76
2016-09-28T01:37:24.539Z,15.88
2016-09-28T01:38:24.528Z,15.97
2016-09-28T01:39:24.524Z,15.94
2016-09-28T01:40:24.510Z,16.03
2016-09-28T01:41:24.494Z,15.96
2016-09-28T01:42:24.797Z,16.01
2016-09-28T01:43:24.795Z,16.01
2016-09-28T01:44:24.468Z,16.07
2016-09-28T01:45:24.454Z,16.18
2016-09-28T01:46:24.444Z,16.15
2016-09-28T01:47:24.430Z,16.15
2016-09-28T01:48:25.074Z,16.18
2016-09-28T01:49:24.407Z,16.18
2016-09-28T01:50:24.400Z,16.22
2016-09-28T01:51:24.391Z,16.22
2016-09-28T01:52:24.381Z,16.18
2016-09-28T01:53:24.684Z,16.22
2016-09-28T01:54:24.362Z,16.2
2016-09-28T01:55:24.349Z,16.2
2016-09-28T01:56:24.340Z,16.22
2016-09-28T01:57:24.336Z,16.25
2016-09-28T01:58:24.332Z,16.25
2016-09-28T01:59:24.308Z,16.3
2016-09-28T02:00:24.299Z,16.31
2016-09-28T02:01:24.288Z,16.3
2016-09-28T02:02:24.661Z,16.33
2016-09-28T02:03:24.263Z,16.33
2016-09-28T02:04:24.256Z,16.26
2016-09-28T02:05:24.561Z,16.31
2016-09-28T02:06:24.548Z,16.3
2016-09-28T02:07:24.223Z,16.31
2016-09-28T02:08:24.213Z,16.31
2016-09-28T02:09:24.211Z,16.31
2016-09-28T02:10:24.196Z,16.3
2016-09-28T02:11:24.183Z,16.35
2016-09-28T02:12:24.173Z,16.27
2016-09-28T02:13:24.175Z,16.41
2016-09-28T02:14:24.151Z,16.37
2016-09-28T02:15:24.453Z,16.44
2016-09-28T02:16:24.143Z,16.41
2016-09-28T02:17:24.117Z,16.34
2016-09-28T02:18:24.112Z,16.42
2016-09-28T02:19:24.414Z,16.4
2016-09-28T02:20:24.086Z,16.44
2016-09-28T02:21:24.073Z,16.56
2016-09-28T02:22:24.070Z,16.42
2016-09-28T02:23:24.062Z,16.45
2016-09-28T02:24:24.046Z,16.53
2016-09-28T02:25:24.037Z,16.52
2016-09-28T02:26:24.022Z,16.42
2016-09-28T02:27:24.018Z,16.49
2016-09-28T02:28:24.008Z,16.44
2016-09-28T02:29:23.992Z,16.5
2016-09-28T02:30:23.985Z,16.45
2016-09-28T02:31:24.297Z,16.52
2016-09-28T02:32:23.961Z,16.5
2016-09-28T02:33:23.955Z,16.49
2016-09-28T02:34:23.941Z,16.5
2016-09-28T02:35:23.936Z,16.5
2016-09-28T02:36:23.924Z,16.52
2016-09-28T02:37:23.909Z,16.56
2016-09-28T02:38:23.909Z,16.52
2016-09-28T02:39:23.891Z,16.45
2016-09-28T02:40:23.882Z,16.5
2016-09-28T02:41:23.874Z,16.58
2016-09-28T02:42:23.865Z,16.56
2016-09-28T02:43:24.168Z,16.6
2016-09-28T02:44:23.839Z,16.62
2016-09-28T02:45:24.147Z,16.62
2016-09-28T02:46:23.844Z,16.58
2016-09-28T02:47:24.019Z,16.63
2016-09-28T02:48:23.796Z,16.63
2016-09-28T02:49:23.796Z,16.59
2016-09-28T02:50:24.093Z,16.62
2016-09-28T02:51:23.768Z,16.62
2016-09-28T02:52:23.759Z,16.56
2016-09-28T02:53:23.750Z,16.62
2016-09-28T02:54:23.741Z,16.6
2016-09-28T02:55:23.727Z,16.5
2016-09-28T02:56:23.715Z,16.53
2016-09-28T02:57:23.714Z,16.53
2016-09-28T02:58:23.695Z,16.52
2016-09-28T02:59:23.703Z,16.48
2016-09-28T03:00:23.989Z,16.52
2016-09-28T03:01:23.665Z,16.56
2016-09-28T03:02:23.653Z,16.49
2016-09-28T03:03:23.644Z,16.52
2016-09-28T03:04:23.632Z,16.53
2016-09-28T03:05:23.937Z,16.58
2016-09-28T03:06:23.614Z,16.49
2016-09-28T03:07:23.917Z,16.49
2016-09-28T03:08:23.591Z,16.48
2016-09-28T03:09:23.581Z,16.41
2016-09-28T03:10:23.933Z,16.5
2016-09-28T03:11:23.581Z,16.38
2016-09-28T03:12:23.560Z,16.37
2016-09-28T03:13:23.857Z,16.35
2016-09-28T03:14:24.176Z,16.35
2016-09-28T03:15:23.520Z,16.35
2016-09-28T03:16:23.512Z,16.35
2016-09-28T03:17:23.501Z,16.35
2016-09-28T03:18:23.486Z,16.33
2016-09-28T03:19:23.476Z,16.38
2016-09-28T03:20:23.470Z,16.33
2016-09-28T03:21:23.453Z,16.31
2016-09-28T03:22:23.760Z,16.27
2016-09-28T03:23:23.449Z,16.26
2016-09-28T03:24:23.424Z,16.31
2016-09-28T03:25:23.418Z,16.23
2016-09-28T03:26:23.402Z,16.31
2016-09-28T03:27:23.394Z,16.31
2016-09-28T03:28:23.392Z,16.26
2016-09-28T03:29:23.376Z,16.25
2016-09-28T03:30:23.366Z,16.26
2016-09-28T03:31:23.408Z,16.23
2016-09-28T03:32:23.353Z,16.2
2016-09-28T03:33:23.658Z,16.22
2016-09-28T03:34:23.326Z,16.23
2016-09-28T03:35:23.308Z,16.16
2016-09-28T03:36:23.614Z,16.16
2016-09-28T03:37:23.289Z,16.18
2016-09-28T03:38:23.274Z,16.09
2016-09-28T03:39:23.899Z,16.15
2016-09-28T03:40:23.573Z,16.15
2016-09-28T03:41:23.250Z,16.09
2016-09-28T03:42:23.240Z,16.11
2016-09-28T03:43:23.545Z,16.12
2016-09-28T03:44:23.211Z,16.12
2016-09-28T03:45:23.205Z,16.15
2016-09-28T03:46:23.508Z,16.12
2016-09-28T03:47:23.180Z,16.16
2016-09-28T03:48:23.170Z,16.09
2016-09-28T03:49:23.162Z,16.12
2016-09-28T03:50:23.148Z,16.12
2016-09-28T03:51:23.153Z,16.16
2016-09-28T03:52:23.126Z,16.14
2016-09-28T03:53:23.116Z,16.09
2016-09-28T03:54:23.125Z,16.06
2016-09-28T03:55:23.413Z,16.07
2016-09-28T03:56:23.088Z,16.06
2016-09-28T03:57:23.077Z,16.01
2016-09-28T03:58:23.066Z,16.04
2016-09-28T03:59:23.057Z,16.09
2016-09-28T04:00:23.044Z,16.07
2016-09-28T04:01:23.037Z,16.07
2016-09-28T04:02:23.026Z,16.04
2016-09-28T04:03:23.023Z,16.14
2016-09-28T04:04:23.003Z,16.16
2016-09-28T04:05:22.994Z,16.2
2016-09-28T04:06:22.988Z,16.18
2016-09-28T04:07:22.976Z,16.23
2016-09-28T04:08:22.957Z,16.25
2016-09-28T04:09:22.945Z,16.23
2016-09-28T04:10:22.938Z,16.3
2016-09-28T04:11:22.930Z,16.27
2016-09-28T04:12:23.232Z,16.38
2016-09-28T04:13:23.233Z,16.4
2016-09-28T04:14:22.895Z,16.37
2016-09-28T04:15:22.895Z,16.34
2016-09-28T04:16:22.875Z,16.41
2016-09-28T04:17:23.186Z,16.44
2016-09-28T04:18:22.853Z,16.42
2016-09-28T04:19:22.846Z,16.42
2016-09-28T04:20:23.459Z,16.53
2016-09-28T04:21:22.820Z,16.5
2016-09-28T04:22:22.810Z,16.52
2016-09-28T04:23:22.800Z,16.56
2016-09-28T04:24:22.787Z,16.6
2016-09-28T04:25:22.777Z,16.58
2016-09-28T04:26:23.437Z,16.63
2016-09-28T04:27:23.097Z,16.59
2016-09-28T04:28:23.087Z,16.62
2016-09-28T04:29:22.751Z,16.7
2016-09-28T04:30:22.726Z,16.74
2016-09-28T04:31:22.724Z,16.68
2016-09-28T04:32:22.710Z,16.71
2016-09-28T04:33:23.007Z,16.81
2016-09-28T04:34:22.744Z,16.67
2016-09-28T04:35:22.677Z,16.83
2016-09-28T04:36:22.661Z,16.65
2016-09-28T04:37:22.655Z,16.78
2016-09-28T04:38:22.642Z,16.8
2016-09-28T04:39:22.632Z,16.8
2016-09-28T04:40:22.632Z,16.89
2016-09-28T04:41:23.242Z,16.89
2016-09-28T04:42:22.605Z,16.86
2016-09-28T04:43:22.600Z,16.86
2016-09-28T04:44:22.590Z,16.85
2016-09-28T04:45:22.571Z,16.88
2016-09-28T04:46:22.569Z,16.85
2016-09-28T04:47:22.758Z,16.96
2016-09-28T04:48:22.539Z,16.96
2016-09-28T04:49:22.536Z,16.95
2016-09-28T04:50:22.517Z,16.99
2016-09-28T04:51:22.507Z,16.98
2016-09-28T04:52:22.500Z,16.98
2016-09-28T04:53:22.488Z,16.98
2016-09-28T04:54:22.491Z,16.93
2016-09-28T04:55:22.473Z,16.88
2016-09-28T04:56:22.478Z,16.83
2016-09-28T04:57:22.452Z,16.85
2016-09-28T04:58:22.444Z,16.78
2016-09-28T04:59:22.430Z,16.83
2016-09-28T05:00:22.739Z,16.75
2016-09-28T05:01:22.408Z,16.77
2016-09-28T05:02:22.404Z,16.83
2016-09-28T05:03:22.392Z,16.83
2016-09-28T05:04:22.382Z,16.85
2016-09-28T05:05:22.361Z,16.77
2016-09-28T05:06:22.361Z,16.74
2016-09-28T05:07:22.353Z,16.73
2016-09-28T05:08:22.332Z,16.75
2016-09-28T05:09:22.650Z,16.71
2016-09-28T05:10:22.645Z,16.71
2016-09-28T05:11:22.301Z,16.75
2016-09-28T05:12:22.298Z,16.73
2016-09-28T05:13:22.284Z,16.77
2016-09-28T05:14:22.269Z,16.74
2016-09-28T05:15:22.581Z,16.74
2016-09-28T05:16:22.259Z,16.8
2016-09-28T05:17:22.248Z,16.8
2016-09-28T05:18:22.243Z,16.81
2016-09-28T05:19:22.219Z,16.8
2016-09-28T05:20:22.527Z,16.75
2016-09-28T05:21:22.206Z,16.78
2016-09-28T05:22:22.198Z,16.89
2016-09-28T05:23:22.176Z,16.83
2016-09-28T05:24:22.169Z,16.77
2016-09-28T05:25:22.158Z,16.86
2016-09-28T05:26:22.145Z,16.88
2016-09-28T05:27:22.451Z,16.83
2016-09-28T05:28:22.125Z,16.85
2016-09-28T05:29:22.114Z,16.86
2016-09-28T05:30:22.108Z,16.96
2016-09-28T05:31:22.098Z,16.96
2016-09-28T05:32:22.081Z,16.95
2016-09-28T05:33:22.395Z,16.93
2016-09-28T05:34:22.069Z,17.03
2016-09-28T05:35:22.054Z,17.07
2016-09-28T05:36:22.046Z,17.06
2016-09-28T05:37:22.037Z,16.99
2016-09-28T05:38:22.017Z,17.07
2016-09-28T05:39:22.329Z,17.03
2016-09-28T05:40:22.632Z,17.06
2016-09-28T05:41:21.988Z,17.1
2016-09-28T05:42:21.982Z,17.08
2016-09-28T05:43:21.972Z,17.13
2016-09-28T05:44:21.960Z,17.11
2016-09-28T05:45:22.269Z,17.08
2016-09-28T05:46:21.944Z,17.13
2016-09-28T05:47:21.941Z,17.14
2016-09-28T05:48:22.264Z,17.14
2016-09-28T05:49:22.239Z,17.08
2016-09-28T05:50:21.902Z,17.1
2016-09-28T05:51:21.893Z,17.14
2016-09-28T05:52:21.878Z,17.08
2016-09-28T05:53:21.872Z,17.13
2016-09-28T05:54:21.861Z,17.1
2016-09-28T05:55:21.854Z,17.1
2016-09-28T05:56:21.839Z,17.1
2016-09-28T05:57:21.829Z,17.07
2016-09-28T05:58:21.815Z,17.07
2016-09-28T05:59:22.129Z,17.1
2016-09-28T06:00:21.851Z,17.13
2016-09-28T06:01:21.785Z,17.14
2016-09-28T06:02:21.780Z,17.07
2016-09-28T06:03:21.766Z,17.11
2016-09-28T06:04:21.756Z,17.11
2016-09-28T06:05:21.749Z,17.1
2016-09-28T06:06:21.740Z,17.14
2016-09-28T06:07:21.725Z,17.08
2016-09-28T06:08:21.730Z,17.1
2016-09-28T06:09:21.709Z,17.11
2016-09-28T06:10:21.719Z,17.06
2016-09-28T06:11:21.690Z,17.11
2016-09-28T06:12:21.993Z,17.1
2016-09-28T06:13:21.671Z,17.07
2016-09-28T06:14:21.660Z,17.13
2016-09-28T06:15:21.643Z,17.1
2016-09-28T06:16:21.645Z,17.06
2016-09-28T06:17:21.634Z,17.1
2016-09-28T06:18:21.622Z,17.08
2016-09-28T06:19:21.608Z,17.07
2016-09-28T06:20:21.596Z,17.14
2016-09-28T06:21:21.586Z,17.07
2016-09-28T06:22:21.575Z,17.15
2016-09-28T06:23:21.571Z,17.1
2016-09-28T06:24:21.568Z,17.1
2016-09-28T06:25:21.550Z,17.14
2016-09-28T06:26:21.854Z,17.15
2016-09-28T06:27:21.526Z,17.14
2016-09-28T06:28:21.526Z,17.22
2016-09-28T06:29:21.512Z,17.2
2016-09-28T06:30:21.496Z,17.28
2016-09-28T06:31:21.491Z,17.23
2016-09-28T06:32:21.478Z,17.25
2016-09-28T06:33:21.471Z,17.28
2016-09-28T06:34:21.462Z,17.22
2016-09-28T06:35:21.448Z,17.22
2016-09-28T06:36:21.440Z,17.22
2016-09-28T06:37:21.433Z,17.25
2016-09-28T06:38:21.420Z,17.28
2016-09-28T06:39:21.414Z,17.36
2016-09-28T06:40:21.403Z,17.32
2016-09-28T06:41:21.391Z,17.32
2016-09-28T06:42:21.383Z,17.36
2016-09-28T06:43:21.372Z,17.36
2016-09-28T06:44:21.359Z,17.38
2016-09-28T06:45:21.352Z,17.38
2016-09-28T06:46:21.346Z,17.46
2016-09-28T06:47:21.529Z,17.44
2016-09-28T06:48:21.321Z,17.54
2016-09-28T06:49:21.314Z,17.38
2016-09-28T06:50:21.300Z,17.47
2016-09-28T06:51:21.291Z,17.43
2016-09-28T06:52:21.286Z,17.57
2016-09-28T06:53:21.269Z,17.53
2016-09-28T06:54:21.265Z,17.54
2016-09-28T06:55:21.264Z,17.55
2016-09-28T06:56:21.244Z,17.62
2016-09-28T06:57:21.238Z,17.54
2016-09-28T06:58:21.221Z,17.54
2016-09-28T06:59:21.214Z,17.62
2016-09-28T07:00:21.204Z,17.69
2016-09-28T07:01:21.191Z,17.63
2016-09-28T07:02:21.186Z,17.66
2016-09-28T07:03:21.176Z,17.57
2016-09-28T07:04:21.177Z,17.66
2016-09-28T07:05:21.157Z,17.71
2016-09-28T07:06:21.780Z,17.73
2016-09-28T07:07:21.133Z,17.7
2016-09-28T07:08:21.128Z,17.69
2016-09-28T07:09:21.120Z,17.71
2016-09-28T07:10:21.422Z,17.71
2016-09-28T07:11:21.420Z,17.74
2016-09-28T07:12:21.091Z,17.71
2016-09-28T07:13:21.074Z,17.74
2016-09-28T07:14:21.070Z,17.74
2016-09-28T07:15:21.371Z,17.73
2016-09-28T07:16:21.074Z,17.73
2016-09-28T07:17:21.043Z,17.81
2016-09-28T07:18:21.357Z,17.7
2016-09-28T07:19:21.029Z,17.73
2016-09-28T07:20:21.021Z,17.78
2016-09-28T07:21:21.005Z,17.73
2016-09-28T07:22:20.993Z,17.64
2016-09-28T07:23:20.995Z,17.69
2016-09-28T07:24:20.968Z,17.66
2016-09-28T07:25:20.960Z,17.59
2016-09-28T07:26:20.958Z,17.67
2016-09-28T07:27:20.941Z,17.67
2016-09-28T07:28:20.935Z,17.55
2016-09-28T07:29:20.923Z,17.54
2016-09-28T07:30:20.917Z,17.57
2016-09-28T07:31:20.910Z,17.55
2016-09-28T07:32:20.896Z,17.57
2016-09-28T07:33:20.898Z,17.55
2016-09-28T07:34:21.191Z,17.66
2016-09-28T07:35:20.869Z,17.57
2016-09-28T07:36:21.175Z,17.55
2016-09-28T07:37:20.844Z,17.53
2016-09-28T07:38:20.835Z,17.53
2016-09-28T07:39:21.141Z,17.67
2016-09-28T07:40:20.821Z,17.57
2016-09-28T07:41:20.810Z,17.51
2016-09-28T07:42:20.801Z,17.53
2016-09-28T07:43:20.789Z,17.57
2016-09-28T07:44:20.781Z,17.66
2016-09-28T07:45:20.781Z,17.66
2016-09-28T07:46:21.395Z,17.57
2016-09-28T07:47:20.758Z,17.57
2016-09-28T07:48:20.747Z,17.59
2016-09-28T07:49:20.731Z,17.62
2016-09-28T07:50:20.726Z,17.62
2016-09-28T07:51:20.722Z,17.63
2016-09-28T07:52:20.711Z,17.67
2016-09-28T07:53:20.700Z,17.59
2016-09-28T07:54:20.683Z,17.67
2016-09-28T07:55:20.698Z,17.67
2016-09-28T07:56:20.678Z,17.69
2016-09-28T07:57:20.696Z,17.66
2016-09-28T07:58:20.663Z,17.62
2016-09-28T07:59:20.637Z,17.69
2016-09-28T08:00:20.633Z,17.62
2016-09-28T08:01:20.933Z,17.66
2016-09-28T08:02:20.611Z,17.67
2016-09-28T08:03:20.601Z,17.64
2016-09-28T08:04:20.612Z,17.66
2016-09-28T08:05:20.577Z,17.74
2016-09-28T08:06:20.570Z,17.76
2016-09-28T08:07:20.562Z,17.7
2016-09-28T08:08:20.865Z,17.73
2016-09-28T08:09:20.876Z,17.71
2016-09-28T08:10:20.530Z,17.73
2016-09-28T08:11:20.837Z,17.74
2016-09-28T08:12:20.563Z,17.85
2016-09-28T08:13:20.511Z,17.82
2016-09-28T08:14:20.494Z,17.97
2016-09-28T08:15:20.493Z,17.92
2016-09-28T08:16:20.471Z,17.87
2016-09-28T08:17:20.463Z,17.92
2016-09-28T08:18:20.457Z,17.85
2016-09-28T08:19:20.460Z,17.99
2016-09-28T08:20:20.435Z,17.89
2016-09-28T08:21:20.486Z,17.91
2016-09-28T08:22:20.429Z,17.94
2016-09-28T08:23:20.423Z,17.87
2016-09-28T08:24:20.717Z,17.88
2016-09-28T08:25:20.391Z,17.91
2016-09-28T08:26:20.390Z,17.91
2016-09-28T08:27:20.389Z,18.02
2016-09-28T08:28:20.678Z,17.92
2016-09-28T08:29:20.356Z,17.99
2016-09-28T08:30:20.344Z,17.99
2016-09-28T08:31:20.338Z,17.99
2016-09-28T08:32:20.642Z,18.02
2016-09-28T08:33:20.632Z,18.02
2016-09-28T08:34:20.309Z,18.03
2016-09-28T08:35:20.296Z,17.95
2016-09-28T08:36:20.604Z,17.91
2016-09-28T08:37:20.286Z,17.99
2016-09-28T08:38:20.278Z,17.97
2016-09-28T08:39:20.572Z,18.02
2016-09-28T08:40:20.248Z,18
2016-09-28T08:41:20.243Z,17.97
2016-09-28T08:42:20.238Z,18
2016-09-28T08:43:20.540Z,17.99
2016-09-28T08:44:20.211Z,18.06
2016-09-28T08:45:20.205Z,18.06
2016-09-28T08:46:20.196Z,18.07
2016-09-28T08:47:20.385Z,18.19
2016-09-28T08:48:20.184Z,18.24
2016-09-28T08:49:20.170Z,18.18
2016-09-28T08:50:20.157Z,18.28
2016-09-28T08:51:20.153Z,18.28
2016-09-28T08:52:20.143Z,18.43
2016-09-28T08:53:20.135Z,18.49
2016-09-28T08:54:20.125Z,18.55
2016-09-28T08:55:20.115Z,18.54
2016-09-28T08:56:20.103Z,18.47
2016-09-28T08:57:20.101Z,18.5
2016-09-28T08:58:20.403Z,18.5
2016-09-28T08:59:20.079Z,18.4
2016-09-28T09:00:20.078Z,18.44
2016-09-28T09:01:20.070Z,18.44
2016-09-28T09:02:20.368Z,18.46
2016-09-28T09:03:20.053Z,18.43
2016-09-28T09:04:20.033Z,18.4
2016-09-28T09:05:20.030Z,18.43
2016-09-28T09:06:20.021Z,18.49
2016-09-28T09:07:20.009Z,18.4
2016-09-28T09:08:20.004Z,18.42
2016-09-28T09:09:20.000Z,18.44
2016-09-28T09:10:19.984Z,18.61
2016-09-28T09:11:19.979Z,18.57
2016-09-28T09:12:19.971Z,18.64
2016-09-28T09:13:20.284Z,18.5
2016-09-28T09:14:19.956Z,18.67
2016-09-28T09:15:19.947Z,18.58
2016-09-28T09:16:19.932Z,18.54
2016-09-28T09:17:19.925Z,18.44
2016-09-28T09:18:19.920Z,18.43
2016-09-28T09:19:19.924Z,18.4
2016-09-28T09:20:19.909Z,18.39
2016-09-28T09:21:19.890Z,18.46
2016-09-28T09:22:20.211Z,18.42
2016-09-28T09:23:20.192Z,18.34
2016-09-28T09:24:20.192Z,18.44
2016-09-28T09:25:19.855Z,18.47
2016-09-28T09:26:19.855Z,18.55
2016-09-28T09:27:19.840Z,18.54
2016-09-28T09:28:19.833Z,18.76
2016-09-28T09:29:19.829Z,18.73
2016-09-28T09:30:19.815Z,18.68
2016-09-28T09:31:19.824Z,18.73
2016-09-28T09:32:19.800Z,18.8
2016-09-28T09:33:19.789Z,18.87
2016-09-28T09:34:19.787Z,18.98
2016-09-28T09:35:20.105Z,18.99
2016-09-28T09:36:19.766Z,18.99
2016-09-28T09:37:19.758Z,18.95
2016-09-28T09:38:20.069Z,18.99
2016-09-28T09:39:19.745Z,19.14
2016-09-28T09:40:19.743Z,19.25
2016-09-28T09:41:19.729Z,19.2
2016-09-28T09:42:20.092Z,19.24
2016-09-28T09:43:19.720Z,19.23
2016-09-28T09:44:20.018Z,19.14
2016-09-28T09:45:19.699Z,19.18
2016-09-28T09:46:19.693Z,18.98
2016-09-28T09:47:19.703Z,19.02
2016-09-28T09:48:19.668Z,18.94
2016-09-28T09:49:19.678Z,19.01
2016-09-28T09:50:19.680Z,19.24
2016-09-28T09:51:19.652Z,19.13
2016-09-28T09:52:19.646Z,19.17
2016-09-28T09:53:19.634Z,19.31
2016-09-28T09:54:19.683Z,19.38
2016-09-28T09:55:19.622Z,19.39
2016-09-28T09:56:19.610Z,19.39
2016-09-28T09:57:19.609Z,19.48
2016-09-28T09:58:19.602Z,19.46
2016-09-28T09:59:19.916Z,19.46
2016-09-28T10:00:19.906Z,19.54
2016-09-28T10:01:19.581Z,19.61
2016-09-28T10:02:19.884Z,19.72
2016-09-28T10:03:19.875Z,19.6
2016-09-28T10:04:19.553Z,19.54
2016-09-28T10:05:19.864Z,19.4
2016-09-28T10:06:19.565Z,19.35
2016-09-28T10:07:19.622Z,19.36
2016-09-28T10:08:19.532Z,19.29
2016-09-28T10:09:19.855Z,19.33
2016-09-28T10:10:19.563Z,19.31
2016-09-28T10:11:19.820Z,19.31
2016-09-28T10:12:20.121Z,19.33
2016-09-28T10:13:19.510Z,19.4
2016-09-28T10:14:19.794Z,19.38
2016-09-28T10:15:19.480Z,19.42
2016-09-28T10:16:19.464Z,19.51
2016-09-28T10:17:19.455Z,19.57
2016-09-28T10:18:19.777Z,19.69
2016-09-28T10:19:19.440Z,19.73
2016-09-28T10:20:19.442Z,19.8
2016-09-28T10:21:19.774Z,19.79
2016-09-28T10:22:19.432Z,19.88
2016-09-28T10:23:19.413Z,19.84
2016-09-28T10:24:19.408Z,19.98
2016-09-28T10:25:19.395Z,19.95
2016-09-28T10:26:19.407Z,19.79
2016-09-28T10:27:19.434Z,19.72
2016-09-28T10:28:19.390Z,19.73
2016-09-28T10:29:19.373Z,19.6
2016-09-28T10:30:19.360Z,19.58
2016-09-28T10:31:19.368Z,19.65
2016-09-28T10:32:19.350Z,19.6
2016-09-28T10:33:19.361Z,19.61
2016-09-28T10:34:19.334Z,19.7
2016-09-28T10:35:19.334Z,19.78
2016-09-28T10:36:19.337Z,19.75
2016-09-28T10:37:19.635Z,19.75
2016-09-28T10:38:19.304Z,19.72
2016-09-28T10:39:19.295Z,19.69
2016-09-28T10:40:19.609Z,19.6
2016-09-28T10:41:19.283Z,19.66
2016-09-28T10:42:19.612Z,19.48
2016-09-28T10:43:19.291Z,19.51
2016-09-28T10:44:19.590Z,19.68
2016-09-28T10:45:19.259Z,19.55
2016-09-28T10:46:19.248Z,19.48
2016-09-28T10:47:19.238Z,19.55
2016-09-28T10:48:19.543Z,19.51
2016-09-28T10:49:19.224Z,19.69
2016-09-28T10:50:19.843Z,19.7
2016-09-28T10:51:19.203Z,19.76
2016-09-28T10:52:19.519Z,19.86
2016-09-28T10:53:19.191Z,19.95
2016-09-28T10:54:19.184Z,20.08
2016-09-28T10:55:19.183Z,20.08
2016-09-28T10:56:19.483Z,20.13
2016-09-28T10:57:19.159Z,20.13
2016-09-28T10:58:19.152Z,20.27
2016-09-28T10:59:19.150Z,20.23
2016-09-28T11:00:19.453Z,20.28
2016-09-28T11:01:19.137Z,20.3
2016-09-28T11:02:19.129Z,20.27
2016-09-28T11:03:19.117Z,20.27
2016-09-28T11:04:19.116Z,20.39
2016-09-28T11:05:19.106Z,20.41
2016-09-28T11:06:19.100Z,20.43
2016-09-28T11:07:19.403Z,20.5
2016-09-28T11:08:19.091Z,20.66
2016-09-28T11:09:19.076Z,20.56
2016-09-28T11:10:19.069Z,20.71
2016-09-28T11:11:19.061Z,20.72
2016-09-28T11:12:19.063Z,20.86
2016-09-28T11:13:19.047Z,20.89
2016-09-28T11:14:19.043Z,21.01
2016-09-28T11:15:19.033Z,21.04
2016-09-28T11:16:19.032Z,21.08
2016-09-28T11:17:19.023Z,21.04
2016-09-28T11:18:19.018Z,20.93
2016-09-28T11:19:19.325Z,20.98
2016-09-28T11:20:19.006Z,20.89
2016-09-28T11:21:19.004Z,20.84
2016-09-28T11:22:19.308Z,20.86
2016-09-28T11:23:18.991Z,20.86
2016-09-28T11:24:18.982Z,20.83
2016-09-28T11:25:18.975Z,20.8
2016-09-28T11:26:18.966Z,20.89
2016-09-28T11:27:19.282Z,20.87
2016-09-28T11:28:18.952Z,20.87
2016-09-28T11:29:19.264Z,20.98
2016-09-28T11:30:19.257Z,20.81
2016-09-28T11:31:19.251Z,20.86
2016-09-28T11:32:18.931Z,20.87
2016-09-28T11:33:18.927Z,20.86
2016-09-28T11:34:19.237Z,20.89
2016-09-28T11:35:18.909Z,20.89
2016-09-28T11:36:18.905Z,20.91
2016-09-28T11:37:18.897Z,21.11
2016-09-28T11:38:18.889Z,21.24
2016-09-28T11:39:18.903Z,21.36
2016-09-28T11:40:19.204Z,21.32
2016-09-28T11:41:18.874Z,21.39
2016-09-28T11:42:18.873Z,21.38
2016-09-28T11:43:18.863Z,21.38
2016-09-28T11:44:18.861Z,21.53
2016-09-28T11:45:18.853Z,21.59
2016-09-28T11:46:19.161Z,21.59
2016-09-28T11:47:18.838Z,21.6
2016-09-28T11:48:18.835Z,21.59
2016-09-28T11:49:18.835Z,21.48
2016-09-28T11:50:18.836Z,21.54
2016-09-28T11:51:18.823Z,21.61
2016-09-28T11:52:18.814Z,21.71
2016-09-28T11:53:18.831Z,21.64
2016-09-28T11:54:19.135Z,21.64
2016-09-28T11:55:18.807Z,21.79
2016-09-28T11:56:18.797Z,21.82
2016-09-28T11:57:18.791Z,21.92
2016-09-28T11:58:19.421Z,21.9
2016-09-28T11:59:18.803Z,21.75
2016-09-28T12:00:18.776Z,21.83
2016-09-28T12:01:19.398Z,21.82
2016-09-28T12:02:19.081Z,21.74
2016-09-28T12:03:19.073Z,21.66
2016-09-28T12:04:18.783Z,21.56
2016-09-28T12:05:18.758Z,21.53
2016-09-28T12:06:19.059Z,21.36
2016-09-28T12:07:18.745Z,21.41
2016-09-28T12:08:18.736Z,21.34
2016-09-28T12:09:18.733Z,21.35
2016-09-28T12:10:18.723Z,21.3
2016-09-28T12:11:18.719Z,21.26
2016-09-28T12:12:18.716Z,21.39
2016-09-28T12:13:18.705Z,21.24
2016-09-28T12:14:18.702Z,21.35
2016-09-28T12:15:18.698Z,21.26
2016-09-28T12:16:19.005Z,21.35
2016-09-28T12:17:18.693Z,21.48
2016-09-28T12:18:19.016Z,21.53
2016-09-28T12:19:18.988Z,21.57
2016-09-28T12:20:18.986Z,21.56
2016-09-28T12:21:18.663Z,21.64
2016-09-28T12:22:19.291Z,21.83
2016-09-28T12:23:18.665Z,21.99
2016-09-28T12:24:18.644Z,22.07
2016-09-28T12:25:18.635Z,22.1
2016-09-28T12:26:18.985Z,21.99
2016-09-28T12:27:18.644Z,21.99
2016-09-28T12:28:18.628Z,22.04
2016-09-28T12:29:18.620Z,21.98
2016-09-28T12:30:18.614Z,21.97
2016-09-28T12:31:18.610Z,21.99
2016-09-28T12:32:18.613Z,22.07
2016-09-28T12:33:18.654Z,22.27
2016-09-28T12:34:18.594Z,22.37
2016-09-28T12:35:18.598Z,22.49
2016-09-28T12:36:18.580Z,22.52
2016-09-28T12:37:18.583Z,22.59
2016-09-28T12:38:18.579Z,22.74
2016-09-28T12:39:18.567Z,22.69
2016-09-28T12:40:18.570Z,22.94
2016-09-28T12:41:18.879Z,22.97
2016-09-28T12:42:18.561Z,23.08
2016-09-28T12:43:18.553Z,23.32
2016-09-28T12:44:18.864Z,23.42
2016-09-28T12:45:18.540Z,23.6
2016-09-28T12:46:18.544Z,23.77
2016-09-28T12:47:18.849Z,23.85
2016-09-28T12:48:19.093Z,23.95
2016-09-28T12:49:18.524Z,23.97
2016-09-28T12:50:18.519Z,24.05
2016-09-28T12:51:18.522Z,24.16
2016-09-28T12:52:18.509Z,24.23
2016-09-28T12:53:18.826Z,24.39
2016-09-28T12:54:18.706Z,24.45
2016-09-28T12:55:18.494Z,24.35